Aérodrome :
LOGIN :

S'inscrire | Disclaimer

   EN    FR    IT 

 










Légende :    VFR   VFR Marginal   IFR   IFR Intensif   IFR Très Intensif
Visi : 
Plafond : 
>= 8 km
>= 3000ft
5 à 8 km
1000 à 3000 ft
1500m à 5 km
500 à 1000 ft
800 à 1500m
200 à 500 ft
< 800m
< 200 ft
Symboles :   Orages  Brouillard  Fortes neiges  Fortes précipitations  Vent > 20 kt
SIGMETs :   Divers  Orages  Givrage  Turbulence  Onde Orograph.  Cendres Volcan.






- Altitude de l'aérodrome : 626 ft
- Code IATA : CRA


LRCV - Craiova

DERNIER METAR :
  • 062030Z 24002KT 0300 R27/0350N FZFG VV001 M03/M03 Q1021

METARs EXPIRÉS :
  • 062000Z 28002KT 0250 R27/0400N FZFG VV001 M03/M03 Q1021
  • 061930Z VRB02KT 0300 R27/0350N FZFG VV001 M03/M03 Q1021
  • 061900Z 24002KT 0200 R27/0300N FZFG VV001 M03/M03 Q1022
  • 061830Z 25002KT 0250 R27/0375N FZFG VV001 M02/M03 Q1022
  • 061800Z 27001KT 0200 R27/0375N FZFG VV001 M02/M03 Q1022
  • 061730Z 27003KT 0150 R27/0300N FZFG VV001 M02/M03 Q1022

TAF TAF LRCV
Valide du 06 à 21h jusqu'au 07 à 06h UTC


062000Z 0621/0706 VRB04KT 0200 FZFG VV001
TEMPO 0621/0702 0800 VV002
BECMG 0704/0706 1500 BR BKN002



MET'MAP, la Météo Aéronautique d'un coup d'oeil ! - Copyright ORBIFLY Décembre 2007 - Disclaimer

ORBIFLY MET'MAP TEAM :

Programmation & Développement : Alexandra Zaïnal
Sur une idée originale de : Baudouin d'Aumeries
Assistance à la programmation : Marc-Olivier Méhu
Soutien technique & logistique : Manuel Goepfert

Contact : metmap@orbifly.com




SOURCES & CREDITS :

   NOAA